createdAt,value
2022-11-15T00:07:56.144Z,75.50
2022-11-15T02:02:18.653Z,77.80
2022-11-15T02:10:16.629Z,78.00
2022-11-15T03:42:30.358Z,78.10
2022-11-15T03:53:38.456Z,78.20
2022-11-15T04:45:18.354Z,78.60
2022-11-15T05:03:21.429Z,78.30
2022-11-15T05:16:46.360Z,78.30
2022-11-15T05:23:44.979Z,78.60
2022-11-15T05:38:25.839Z,78.50
2022-11-15T05:41:56.866Z,78.20
2022-11-15T05:48:43.898Z,78.30
2022-11-15T05:54:41.034Z,78.20
2022-11-15T05:57:54.223Z,78.40
2022-11-15T06:01:47.744Z,78.30
2022-11-15T06:21:01.794Z,78.40
2022-11-15T06:24:28.889Z,78.40
2022-11-15T06:37:21.144Z,78.70
2022-11-15T07:58:44.786Z,78.90
2022-11-15T08:01:45.169Z,78.40
2022-11-15T08:33:37.131Z,77.80
2022-11-15T08:40:04.737Z,77.70
2022-11-15T08:43:14.845Z,77.80
2022-11-15T09:01:18.634Z,76.70
2022-11-15T09:04:19.697Z,76.90
2022-11-15T09:07:15.906Z,77.10
2022-11-15T09:10:11.117Z,76.60
2022-11-15T09:12:59.506Z,76.60
2022-11-15T09:15:46.880Z,76.50
2022-11-15T09:18:35.894Z,76.40
2022-11-15T09:21:23.281Z,76.40
2022-11-15T09:24:10.366Z,76.30
2022-11-15T09:26:57.944Z,76.20
2022-11-15T09:29:44.885Z,76.10
2022-11-15T09:32:38.809Z,76.10
2022-11-15T09:35:27.236Z,75.90
2022-11-15T09:38:13.956Z,75.90
2022-11-15T09:41:26.071Z,75.50
2022-11-15T09:44:28.027Z,75.10
2022-11-15T09:47:40.659Z,75.20
2022-11-15T09:50:47.921Z,75.00
2022-11-15T09:53:50.739Z,75.10
2022-11-15T09:56:18.808Z,75.10
2022-11-15T09:58:58.065Z,75.00
2022-11-15T10:01:42.521Z,75.10
2022-11-15T10:04:12.132Z,74.90
2022-11-15T10:06:49.011Z,75.20
2022-11-15T10:09:23.841Z,74.60
2022-11-15T10:11:52.519Z,74.20
2022-11-15T10:14:23.462Z,74.20
2022-11-15T10:17:20.539Z,74.10
2022-11-15T10:20:05.034Z,74.00
2022-11-15T10:22:42.130Z,73.80
2022-11-15T10:25:19.397Z,73.60
2022-11-15T10:27:59.501Z,73.40
2022-11-15T10:30:35.814Z,73.20
2022-11-15T10:33:27.235Z,73.50
2022-11-15T10:36:17.595Z,73.30
2022-11-15T10:39:00.418Z,73.30
2022-11-15T10:41:41.221Z,73.20
2022-11-15T10:44:38.187Z,73.10
2022-11-15T10:47:39.278Z,72.80
2022-11-15T10:50:30.558Z,72.80
2022-11-15T10:53:33.163Z,72.30
2022-11-15T10:56:09.225Z,72.60
2022-11-15T10:59:03.289Z,72.60
2022-11-15T11:01:32.079Z,72.60
2022-11-15T11:04:06.892Z,72.60
2022-11-15T11:06:49.205Z,72.50
2022-11-15T11:09:31.210Z,72.20
2022-11-15T11:12:10.640Z,72.10
2022-11-15T11:14:50.093Z,72.00
2022-11-15T11:17:34.836Z,71.90
2022-11-15T11:20:27.838Z,71.60
2022-11-15T11:23:26.123Z,71.50
2022-11-15T11:26:16.632Z,71.30
2022-11-15T11:28:57.592Z,71.10
2022-11-15T11:31:56.081Z,71.20
2022-11-15T11:34:44.839Z,70.80
2022-11-15T11:37:22.876Z,71.40
2022-11-15T11:40:06.106Z,72.60
2022-11-15T11:42:46.471Z,72.50
2022-11-15T11:45:46.157Z,71.70
2022-11-15T11:48:46.498Z,69.90
2022-11-15T11:51:26.447Z,70.00
2022-11-15T11:53:59.590Z,66.90
2022-11-15T11:56:33.604Z,64.90
2022-11-15T11:59:07.812Z,62.50
2022-11-15T12:01:43.238Z,61.90
2022-11-15T12:04:30.854Z,60.30
2022-11-15T12:07:12.576Z,59.00
2022-11-15T12:09:56.354Z,58.60
2022-11-15T12:12:37.734Z,56.60
2022-11-15T12:15:31.263Z,55.80
2022-11-15T12:18:16.334Z,55.30
2022-11-15T12:21:00.518Z,53.90
2022-11-15T12:23:36.999Z,53.20
2022-11-15T12:26:09.472Z,52.80
2022-11-15T12:29:04.460Z,52.70
2022-11-15T12:31:42.008Z,51.80
2022-11-15T12:34:36.992Z,51.10
2022-11-15T12:37:34.832Z,50.00
2022-11-15T12:40:23.282Z,49.80
2022-11-15T12:43:30.555Z,49.50
2022-11-15T12:46:06.516Z,48.50
2022-11-15T12:48:53.773Z,48.80
2022-11-15T12:51:48.120Z,47.60
2022-11-15T12:54:58.857Z,47.70
2022-11-15T12:57:40.251Z,47.20
2022-11-15T13:00:39.718Z,47.00
2022-11-15T13:03:29.571Z,46.50
2022-11-15T13:06:07.628Z,46.20
2022-11-15T13:08:52.102Z,46.00
2022-11-15T13:11:46.761Z,45.80
2022-11-15T13:14:47.023Z,46.00
2022-11-15T13:17:38.774Z,45.90
2022-11-15T13:20:27.743Z,46.20
2022-11-15T13:23:04.093Z,46.10
2022-11-15T13:26:08.472Z,45.80
2022-11-15T13:28:40.821Z,46.20
2022-11-15T13:31:28.958Z,47.10
2022-11-15T13:34:00.837Z,47.80
2022-11-15T13:36:35.166Z,48.60
2022-11-15T13:39:05.766Z,49.60
2022-11-15T13:50:25.229Z,51.80
2022-11-15T14:46:04.272Z,58.80
2022-11-15T14:48:32.928Z,58.90
2022-11-15T14:51:12.315Z,59.20
2022-11-15T14:53:44.301Z,59.60
2022-11-15T14:56:12.804Z,59.80
2022-11-15T14:58:41.167Z,59.90
2022-11-15T15:01:15.757Z,60.10
2022-11-15T15:03:45.097Z,60.30
2022-11-15T15:06:17.857Z,60.20
2022-11-15T15:08:51.521Z,60.60
2022-11-15T15:11:24.687Z,60.50
2022-11-15T15:13:53.804Z,60.60
2022-11-15T15:16:23.467Z,60.90
2022-11-15T15:18:52.431Z,61.30
2022-11-15T15:21:24.016Z,61.30
2022-11-15T15:23:52.228Z,61.30
2022-11-15T15:26:20.437Z,61.40
2022-11-15T15:28:51.654Z,61.50
2022-11-15T15:31:23.620Z,61.80
2022-11-15T15:33:51.789Z,61.90
2022-11-15T15:36:21.058Z,62.10
2022-11-15T15:38:49.626Z,62.20
2022-11-15T15:41:19.191Z,62.50
2022-11-15T15:43:48.450Z,62.60
2022-11-15T15:46:18.900Z,62.80
2022-11-15T15:48:49.683Z,62.80
2022-11-15T15:51:20.494Z,62.80
2022-11-15T15:53:49.976Z,63.20
2022-11-15T15:56:18.178Z,63.10
2022-11-15T15:58:46.351Z,63.50
2022-11-15T16:01:14.662Z,63.50
2022-11-15T16:03:43.003Z,63.60
2022-11-15T16:06:39.170Z,63.70
2022-11-15T16:10:02.013Z,63.80
2022-11-15T16:12:30.880Z,63.90
2022-11-15T16:15:01.466Z,63.90
2022-11-15T16:17:34.394Z,64.20
2022-11-15T16:20:03.680Z,64.20
2022-11-15T16:22:36.403Z,64.60
2022-11-15T16:25:04.779Z,64.50
2022-11-15T16:27:47.986Z,64.60
2022-11-15T16:30:22.822Z,65.00
2022-11-15T16:33:06.798Z,65.10
2022-11-15T16:35:46.283Z,65.00
2022-11-15T16:41:11.000Z,65.50
2022-11-15T16:43:39.347Z,65.30
2022-11-15T16:46:15.491Z,66.40
2022-11-15T16:48:44.030Z,66.40
2022-11-15T16:51:18.116Z,66.50
2022-11-15T16:53:52.111Z,65.70
2022-11-15T16:56:25.227Z,66.60
2022-11-15T16:58:54.803Z,66.20
2022-11-15T17:01:28.975Z,66.50
2022-11-15T17:03:57.854Z,66.10
2022-11-15T17:11:38.153Z,65.90
2022-11-15T17:14:08.513Z,66.00
2022-11-15T17:16:47.226Z,66.20
2022-11-15T17:19:21.345Z,66.30
2022-11-15T17:21:53.823Z,66.20
2022-11-15T17:24:31.238Z,66.30
2022-11-15T17:53:33.494Z,66.00
2022-11-15T18:03:59.965Z,66.50
2022-11-15T18:10:02.336Z,66.70
2022-11-15T18:12:30.866Z,66.70
2022-11-15T18:15:00.172Z,66.90
2022-11-15T18:18:09.560Z,67.00
2022-11-15T18:20:51.818Z,66.80
2022-11-15T18:23:51.693Z,66.90
2022-11-15T18:26:26.860Z,67.10
2022-11-15T18:29:03.609Z,67.20
2022-11-15T18:32:16.028Z,67.00
2022-11-15T20:31:00.406Z,69.40
2022-11-15T20:33:34.957Z,69.40
2022-11-15T20:36:08.817Z,69.70
2022-11-15T20:38:40.781Z,69.80
2022-11-15T20:41:20.323Z,70.10
2022-11-15T21:13:13.539Z,70.90
2022-11-15T22:15:59.310Z,72.30
2022-11-15T22:18:27.893Z,73.40
2022-11-15T22:20:57.401Z,72.80
2022-11-15T22:23:31.099Z,72.70
2022-11-15T22:25:59.842Z,72.90
2022-11-15T22:28:28.363Z,73.20
2022-11-15T22:31:01.119Z,73.30
2022-11-15T22:33:32.573Z,73.40
2022-11-15T22:36:01.785Z,73.60
2022-11-15T22:38:30.415Z,73.60
2022-11-15T22:41:02.460Z,73.70
2022-11-15T22:43:31.547Z,73.70
2022-11-15T22:46:02.748Z,73.70
2022-11-15T22:48:32.528Z,73.70
2022-11-15T22:51:01.510Z,73.70
2022-11-15T22:53:30.450Z,73.80
2022-11-15T22:56:01.589Z,74.00
2022-11-15T22:58:36.752Z,74.00
2022-11-15T23:01:07.225Z,74.20
2022-11-15T23:03:37.893Z,74.10
2022-11-15T23:06:08.246Z,74.10
2022-11-15T23:08:40.006Z,74.10
2022-11-15T23:11:24.903Z,74.20
2022-11-15T23:13:54.331Z,74.20
2022-11-15T23:16:29.872Z,74.20
2022-11-15T23:19:02.306Z,74.40
2022-11-15T23:21:50.116Z,74.40
2022-11-15T23:24:19.437Z,74.40
2022-11-15T23:26:49.581Z,74.60
2022-11-15T23:29:20.154Z,74.60
2022-11-15T23:32:22.292Z,74.60
2022-11-15T23:34:50.693Z,74.60
2022-11-15T23:37:24.937Z,74.70
2022-11-15T23:40:00.646Z,74.90
2022-11-15T23:42:29.198Z,74.80
2022-11-15T23:44:57.896Z,74.90
2022-11-15T23:47:30.134Z,74.70
2022-11-15T23:49:58.694Z,74.90
2022-11-15T23:52:27.106Z,74.80
2022-11-15T23:54:55.552Z,75.00
2022-11-15T23:57:24.433Z,75.20
2022-11-15T23:59:52.817Z,74.90
